createdAt,value
2023-05-12T00:00:49.830Z,64.58
2023-05-12T00:03:18.126Z,64.34
2023-05-12T00:05:45.439Z,64.15
2023-05-12T00:08:14.180Z,63.95
2023-05-12T00:10:42.264Z,63.73
2023-05-12T00:13:10.650Z,63.36
2023-05-12T00:15:38.979Z,63.35
2023-05-12T00:18:06.581Z,62.93
2023-05-12T00:20:33.913Z,62.68
2023-05-12T00:23:01.097Z,62.39
2023-05-12T00:25:28.306Z,62.05
2023-05-12T00:27:55.262Z,61.53
2023-05-12T00:30:22.373Z,61.61
2023-05-12T00:32:50.266Z,61.71
2023-05-12T00:35:18.454Z,62.34
2023-05-12T00:37:46.175Z,62.24
2023-05-12T00:40:14.028Z,62.58
2023-05-12T00:42:41.974Z,62.95
2023-05-12T00:45:10.431Z,62.91
2023-05-12T00:47:38.339Z,63.11
2023-05-12T00:50:06.919Z,63.44
2023-05-12T00:52:36.287Z,63.47
2023-05-12T00:55:05.770Z,63.62
2023-05-12T00:57:34.274Z,64.16
2023-05-12T01:00:02.159Z,64.64
2023-05-12T01:02:30.193Z,65.13
2023-05-12T01:04:57.971Z,65.83
2023-05-12T01:07:26.382Z,65.87
2023-05-12T01:09:57.559Z,66.64
2023-05-12T01:12:26.823Z,66.93
2023-05-12T01:14:55.838Z,66.92
2023-05-12T01:17:29.776Z,66.79
2023-05-12T01:20:00.658Z,66.67
2023-05-12T01:22:33.893Z,66.62
2023-05-12T01:25:04.961Z,66.68
2023-05-12T01:27:34.360Z,66.56
2023-05-12T01:30:05.218Z,65.98
2023-05-12T01:32:36.303Z,66.10
2023-05-12T01:35:04.328Z,65.81
2023-05-12T01:37:33.113Z,65.91
2023-05-12T01:40:03.885Z,65.59
2023-05-12T01:42:31.052Z,65.52
2023-05-12T01:44:58.640Z,65.65
2023-05-12T01:47:26.823Z,65.87
2023-05-12T01:50:14.498Z,66.16
2023-05-12T01:52:41.839Z,66.94
2023-05-12T01:55:14.879Z,66.60
2023-05-12T01:57:47.026Z,66.72
2023-05-12T02:00:14.750Z,67.24
2023-05-12T02:02:43.394Z,67.31
2023-05-12T02:05:12.999Z,68.44
2023-05-12T02:07:47.328Z,68.25
2023-05-12T02:10:14.536Z,68.98
2023-05-12T02:12:41.872Z,69.09
2023-05-12T02:15:10.500Z,69.21
2023-05-12T02:17:42.373Z,68.98
2023-05-12T02:20:12.417Z,71.22
2023-05-12T02:22:39.686Z,70.36
2023-05-12T02:25:07.361Z,69.50
2023-05-12T02:27:34.963Z,70.00
2023-05-12T02:30:02.352Z,70.30
2023-05-12T02:32:29.898Z,70.23
2023-05-12T02:34:57.242Z,70.73
2023-05-12T02:37:24.535Z,71.13
2023-05-12T02:39:51.731Z,71.27
2023-05-12T02:42:19.287Z,71.18
2023-05-12T02:44:46.457Z,70.39
2023-05-12T02:47:13.507Z,70.07
2023-05-12T02:49:40.631Z,69.40
2023-05-12T02:52:07.729Z,68.87
2023-05-12T02:54:34.928Z,68.00
2023-05-12T02:57:05.540Z,67.99
2023-05-12T02:59:32.999Z,66.72
2023-05-12T03:02:00.257Z,64.75
2023-05-12T03:04:27.566Z,64.26
2023-05-12T03:06:54.777Z,63.24
2023-05-12T03:09:21.974Z,61.27
2023-05-12T03:11:49.363Z,59.40
2023-05-12T03:14:16.488Z,58.24
2023-05-12T03:16:43.632Z,56.29
2023-05-12T03:19:11.058Z,55.27
2023-05-12T03:21:38.527Z,52.40
2023-05-12T03:24:06.130Z,50.01
2023-05-12T03:26:33.384Z,49.43
2023-05-12T03:29:00.723Z,48.28
2023-05-12T03:31:27.862Z,46.77
2023-05-12T03:33:55.087Z,45.12
2023-05-12T03:36:22.771Z,43.53
2023-05-12T03:38:49.893Z,42.12
2023-05-12T03:41:17.389Z,39.88
2023-05-12T03:43:44.610Z,37.66
2023-05-12T03:46:12.530Z,34.66
2023-05-12T03:48:39.738Z,33.67
2023-05-12T03:51:07.683Z,33.90
2023-05-12T03:53:34.788Z,33.11
2023-05-12T03:56:06.168Z,33.36
2023-05-12T03:58:33.186Z,32.49
2023-05-12T04:01:02.092Z,31.82
2023-05-12T04:03:29.733Z,31.15
2023-05-12T04:06:03.796Z,31.54
2023-05-12T04:08:31.298Z,30.76
2023-05-12T04:11:01.317Z,30.23
2023-05-12T04:13:30.180Z,29.80
2023-05-12T04:15:58.747Z,28.38
2023-05-12T04:18:27.074Z,27.85
2023-05-12T04:20:55.217Z,27.07
2023-05-12T04:23:22.916Z,26.75
2023-05-12T04:25:50.133Z,26.50
2023-05-12T04:28:17.213Z,26.46
2023-05-12T04:30:44.504Z,25.40
2023-05-12T04:33:11.938Z,24.45
2023-05-12T04:35:39.919Z,23.90
2023-05-12T04:38:07.253Z,23.86
2023-05-12T04:40:35.211Z,24.02
2023-05-12T04:43:03.876Z,23.89
2023-05-12T04:45:32.412Z,23.64
2023-05-12T04:48:00.390Z,23.56
2023-05-12T04:50:27.914Z,23.45
2023-05-12T04:52:55.079Z,22.95
2023-05-12T04:55:22.895Z,23.07
2023-05-12T04:57:50.192Z,23.31
2023-05-12T05:00:17.574Z,23.19
2023-05-12T05:02:46.196Z,23.11
2023-05-12T05:05:13.412Z,21.86
2023-05-12T05:07:40.808Z,21.45
2023-05-12T05:10:09.865Z,21.28
2023-05-12T05:12:38.380Z,20.88
2023-05-12T05:15:06.585Z,20.97
2023-05-12T05:17:34.190Z,20.35
2023-05-12T05:20:09.027Z,20.89
2023-05-12T05:22:40.025Z,19.67
2023-05-12T05:25:08.584Z,19.54
2023-05-12T05:27:36.006Z,19.07
2023-05-12T05:30:03.874Z,19.68
2023-05-12T05:32:31.388Z,18.84
2023-05-12T05:34:59.916Z,18.83
2023-05-12T05:37:27.838Z,18.73
2023-05-12T05:39:56.922Z,18.90
2023-05-12T05:42:24.404Z,19.79
2023-05-12T05:44:52.503Z,18.93
2023-05-12T05:47:20.087Z,18.84
2023-05-12T05:49:47.623Z,19.16
2023-05-12T05:52:15.973Z,19.04
2023-05-12T05:54:43.328Z,19.79
2023-05-12T05:57:11.817Z,20.44
2023-05-12T05:59:39.262Z,21.56
2023-05-12T06:02:07.205Z,20.84
2023-05-12T06:04:34.851Z,20.86
2023-05-12T06:07:02.382Z,20.22
2023-05-12T06:09:29.900Z,20.92
2023-05-12T06:11:57.365Z,19.38
2023-05-12T06:14:24.771Z,18.68
2023-05-12T06:16:52.678Z,18.42
2023-05-12T06:19:20.508Z,19.47
2023-05-12T06:21:48.204Z,19.21
2023-05-12T06:24:15.517Z,19.17
2023-05-12T06:26:42.974Z,19.26
2023-05-12T06:29:10.141Z,18.52
2023-05-12T06:31:37.737Z,18.56
2023-05-12T06:34:05.327Z,19.35
2023-05-12T06:36:33.785Z,18.53
2023-05-12T06:39:01.668Z,17.88
2023-05-12T06:41:29.349Z,17.57
2023-05-12T06:43:57.027Z,17.04
2023-05-12T06:46:28.845Z,16.58
2023-05-12T06:48:56.638Z,15.75
2023-05-12T06:51:24.364Z,15.71
2023-05-12T06:53:51.791Z,16.09
2023-05-12T06:56:19.300Z,16.18
2023-05-12T06:58:47.993Z,15.95
2023-05-12T07:01:15.843Z,16.23
2023-05-12T07:03:43.209Z,16.48
2023-05-12T07:06:10.575Z,17.03
2023-05-12T07:08:38.790Z,16.85
2023-05-12T07:11:06.440Z,17.57
2023-05-12T07:13:33.614Z,17.35
2023-05-12T07:16:01.144Z,17.52
2023-05-12T07:18:28.671Z,16.52
2023-05-12T07:20:56.230Z,17.07
2023-05-12T07:23:23.776Z,16.91
2023-05-12T07:25:51.252Z,16.39
2023-05-12T07:28:18.929Z,17.32
2023-05-12T07:30:46.326Z,15.11
2023-05-12T07:33:13.838Z,15.84
2023-05-12T07:35:40.922Z,16.28
2023-05-12T07:38:09.782Z,14.86
2023-05-12T07:40:37.144Z,14.46
2023-05-12T07:43:04.295Z,15.43
2023-05-12T07:45:31.733Z,15.01
2023-05-12T07:47:59.249Z,14.86
2023-05-12T07:50:26.525Z,15.61
2023-05-12T07:52:54.248Z,15.49
2023-05-12T07:55:22.969Z,15.28
2023-05-12T07:57:50.827Z,15.61
2023-05-12T08:00:19.390Z,16.01
2023-05-12T08:02:47.752Z,15.41
2023-05-12T08:05:15.363Z,16.04
2023-05-12T08:07:44.051Z,15.39
2023-05-12T08:10:13.146Z,14.94
2023-05-12T08:12:41.368Z,15.23
2023-05-12T08:15:09.683Z,14.86
2023-05-12T08:17:37.220Z,15.07
2023-05-12T08:20:05.695Z,15.55
2023-05-12T08:22:33.121Z,15.74
2023-05-12T08:25:00.765Z,16.55
2023-05-12T08:27:29.686Z,16.80
2023-05-12T08:29:57.136Z,16.31
2023-05-12T08:32:24.566Z,16.71
2023-05-12T08:34:52.237Z,16.73
2023-05-12T08:37:20.000Z,16.65
2023-05-12T08:39:47.157Z,16.10
2023-05-12T08:42:35.346Z,16.21
2023-05-12T08:45:03.906Z,15.73
2023-05-12T08:47:33.746Z,15.34
2023-05-12T08:50:03.805Z,14.82
2023-05-12T08:52:35.376Z,14.55
2023-05-12T08:55:04.218Z,14.29
2023-05-12T08:57:32.017Z,14.41
2023-05-12T09:00:00.318Z,14.24
2023-05-12T09:02:37.724Z,14.51
2023-05-12T09:05:12.606Z,15.04
2023-05-12T09:07:47.060Z,14.97
2023-05-12T09:10:33.533Z,15.47
2023-05-12T09:13:33.755Z,15.03
2023-05-12T09:16:02.898Z,15.54
2023-05-12T09:18:45.074Z,15.94
2023-05-12T09:21:12.316Z,15.75
2023-05-12T09:23:39.637Z,16.40
2023-05-12T09:26:06.911Z,15.83
2023-05-12T09:28:40.337Z,15.99
2023-05-12T09:31:26.364Z,16.36
2023-05-12T09:33:53.715Z,17.17
2023-05-12T09:36:23.317Z,17.40
2023-05-12T09:39:04.768Z,16.91
2023-05-12T09:41:36.902Z,15.95
2023-05-12T09:44:05.169Z,14.27
2023-05-12T09:46:33.027Z,13.76
2023-05-12T09:49:01.416Z,12.69
2023-05-12T09:51:29.580Z,12.24
2023-05-12T09:53:57.426Z,12.50
2023-05-12T09:56:28.236Z,11.72
2023-05-12T09:59:00.583Z,11.48
2023-05-12T10:01:28.481Z,11.98
2023-05-12T10:03:57.708Z,12.78
2023-05-12T10:06:46.085Z,13.73
2023-05-12T10:09:34.285Z,14.66
2023-05-12T10:12:04.786Z,15.43
2023-05-12T10:14:33.049Z,15.11
2023-05-12T10:17:01.746Z,14.21
2023-05-12T10:19:30.973Z,13.60
2023-05-12T10:21:58.838Z,12.77
2023-05-12T10:24:29.720Z,12.06
2023-05-12T10:26:57.922Z,11.41
2023-05-12T10:29:30.431Z,11.21
2023-05-12T10:31:58.453Z,11.28
2023-05-12T10:34:37.016Z,11.31
2023-05-12T10:37:11.491Z,12.82
2023-05-12T10:39:52.938Z,12.88
2023-05-12T10:42:26.273Z,14.21
2023-05-12T10:44:56.631Z,13.81
2023-05-12T10:47:27.221Z,14.54
2023-05-12T10:50:00.767Z,14.09
2023-05-12T10:52:28.094Z,13.68
2023-05-12T10:55:03.378Z,14.57
2023-05-12T10:57:32.138Z,14.20
2023-05-12T11:00:05.084Z,13.88
2023-05-12T11:02:36.067Z,14.51
2023-05-12T11:05:10.958Z,14.80
2023-05-12T11:07:39.795Z,14.40
2023-05-12T11:10:08.400Z,14.36
2023-05-12T11:12:36.660Z,14.06
2023-05-12T11:15:06.044Z,14.44
2023-05-12T11:17:33.479Z,14.36
2023-05-12T11:20:01.782Z,13.69
2023-05-12T11:22:29.348Z,13.66
2023-05-12T11:24:56.843Z,13.45
2023-05-12T11:27:24.494Z,13.62
2023-05-12T11:30:01.263Z,13.31
2023-05-12T11:32:30.000Z,12.47
2023-05-12T11:35:15.656Z,12.94
2023-05-12T11:37:44.307Z,11.66
2023-05-12T11:40:22.145Z,11.31
2023-05-12T11:42:53.025Z,11.13
2023-05-12T11:45:30.047Z,11.68
2023-05-12T11:48:14.294Z,11.62
2023-05-12T11:50:47.833Z,11.70
2023-05-12T11:53:18.796Z,12.33
2023-05-12T11:55:56.789Z,12.84
2023-05-12T11:58:27.369Z,13.24
2023-05-12T12:00:55.348Z,13.97
2023-05-12T12:03:22.696Z,14.42
2023-05-12T12:06:11.227Z,13.86
2023-05-12T12:08:40.826Z,13.46
2023-05-12T12:11:08.019Z,12.75
2023-05-12T12:13:35.242Z,12.54
2023-05-12T12:16:02.526Z,12.58
2023-05-12T12:18:29.990Z,11.96
2023-05-12T12:20:57.385Z,11.81
2023-05-12T12:23:24.666Z,11.96
2023-05-12T12:25:52.334Z,11.78
2023-05-12T12:28:20.982Z,11.65
2023-05-12T12:30:48.305Z,11.66
2023-05-12T12:33:16.913Z,11.83
2023-05-12T12:35:45.513Z,12.51
2023-05-12T12:38:12.757Z,13.63
2023-05-12T12:40:40.084Z,14.58
2023-05-12T12:43:07.478Z,15.18
2023-05-12T12:45:35.147Z,15.44
2023-05-12T12:48:02.824Z,15.73
2023-05-12T12:50:30.765Z,14.85
2023-05-12T12:52:58.472Z,15.28
2023-05-12T12:55:26.186Z,16.50
2023-05-12T12:57:53.880Z,16.98
2023-05-12T13:00:23.777Z,17.35
2023-05-12T13:02:52.137Z,17.88
2023-05-12T13:05:20.832Z,18.01
2023-05-12T13:07:48.697Z,17.53
2023-05-12T13:10:16.734Z,17.31
2023-05-12T13:12:44.147Z,16.75
2023-05-12T13:15:12.141Z,16.40
2023-05-12T13:17:39.441Z,16.06
2023-05-12T13:20:09.228Z,14.92
2023-05-12T13:22:36.743Z,14.11
2023-05-12T13:25:09.371Z,14.27
2023-05-12T13:27:38.011Z,13.39
2023-05-12T13:30:12.720Z,13.12
2023-05-12T13:32:42.355Z,13.60
2023-05-12T13:35:10.635Z,12.79
2023-05-12T13:37:38.019Z,12.67
2023-05-12T13:40:06.077Z,13.01
2023-05-12T13:42:33.567Z,12.45
2023-05-12T13:45:01.104Z,12.63
2023-05-12T13:47:28.932Z,12.80
2023-05-12T13:49:57.571Z,12.32
2023-05-12T13:52:26.846Z,12.37
2023-05-12T13:54:55.141Z,12.52
2023-05-12T13:57:22.482Z,12.19
2023-05-12T13:59:51.181Z,12.18
2023-05-12T14:02:18.804Z,12.73
2023-05-12T14:04:46.802Z,13.58
2023-05-12T14:07:14.543Z,14.22
2023-05-12T14:09:42.421Z,15.00
2023-05-12T14:12:10.063Z,15.93
2023-05-12T14:14:37.764Z,17.21
2023-05-12T14:17:05.334Z,17.73
2023-05-12T14:19:32.697Z,19.19
2023-05-12T14:22:00.213Z,20.08
2023-05-12T14:24:27.760Z,20.46
2023-05-12T14:26:55.709Z,21.30
2023-05-12T14:29:23.086Z,21.95
2023-05-12T14:31:50.518Z,22.36
2023-05-12T14:34:19.612Z,22.88
2023-05-12T14:36:47.174Z,23.82
2023-05-12T14:39:14.600Z,23.50
2023-05-12T14:41:42.061Z,23.55
2023-05-12T14:44:10.015Z,23.04
2023-05-12T14:46:37.633Z,23.15
2023-05-12T14:49:11.103Z,22.92
2023-05-12T14:51:38.559Z,23.29
2023-05-12T14:54:12.544Z,22.19
2023-05-12T14:56:49.492Z,22.74
2023-05-12T14:59:18.062Z,22.02
2023-05-12T15:01:45.688Z,22.08
2023-05-12T15:04:13.471Z,21.57
2023-05-12T15:06:40.690Z,21.33
2023-05-12T15:09:08.934Z,21.26
2023-05-12T15:11:37.379Z,21.04
2023-05-12T15:14:05.031Z,21.35
2023-05-12T15:16:33.438Z,22.18
2023-05-12T15:19:01.030Z,21.89
2023-05-12T15:21:28.292Z,21.87
2023-05-12T15:23:55.671Z,22.02
2023-05-12T15:26:32.798Z,22.93
2023-05-12T15:29:02.083Z,22.49
2023-05-12T15:31:30.525Z,23.14
2023-05-12T15:33:58.479Z,22.90
2023-05-12T15:36:25.975Z,22.28
2023-05-12T15:38:53.646Z,22.31
2023-05-12T15:41:21.271Z,23.04
2023-05-12T15:43:48.592Z,23.28
2023-05-12T15:46:19.360Z,23.95
2023-05-12T15:48:49.868Z,24.65
2023-05-12T15:51:17.751Z,24.59
2023-05-12T15:53:46.049Z,24.59
2023-05-12T15:56:13.582Z,25.68
2023-05-12T15:58:40.987Z,25.57
2023-05-12T16:01:08.568Z,25.66
2023-05-12T16:03:35.776Z,25.95
2023-05-12T16:06:03.383Z,26.24
2023-05-12T16:08:30.776Z,26.64
2023-05-12T16:10:57.893Z,27.06
2023-05-12T16:13:24.904Z,27.30
2023-05-12T16:15:52.306Z,27.98
2023-05-12T16:18:19.881Z,28.27
2023-05-12T16:20:47.709Z,28.63
2023-05-12T16:23:15.122Z,28.95
2023-05-12T16:25:42.515Z,28.99
2023-05-12T16:28:09.899Z,29.46
2023-05-12T16:30:37.323Z,29.84
2023-05-12T16:33:04.782Z,29.89
2023-05-12T16:35:32.390Z,29.78
2023-05-12T16:38:00.364Z,30.27
2023-05-12T16:40:27.839Z,30.73
2023-05-12T16:42:56.121Z,30.73
2023-05-12T16:45:23.846Z,30.78
2023-05-12T16:47:51.861Z,30.91
2023-05-12T16:50:19.046Z,31.09
2023-05-12T16:52:46.797Z,32.01
2023-05-12T16:55:13.966Z,32.13
2023-05-12T16:57:43.314Z,32.47
2023-05-12T17:00:11.683Z,32.23
2023-05-12T17:02:39.084Z,32.52
2023-05-12T17:05:07.290Z,32.73
2023-05-12T17:07:35.768Z,33.04
2023-05-12T17:10:03.641Z,33.51
2023-05-12T17:12:31.254Z,34.16
2023-05-12T17:15:06.878Z,34.63
2023-05-12T17:17:35.981Z,34.61
2023-05-12T17:20:04.390Z,35.35
2023-05-12T17:22:32.685Z,36.23
2023-05-12T17:24:59.881Z,36.67
2023-05-12T17:27:27.916Z,37.38
2023-05-12T17:29:55.109Z,37.03
2023-05-12T17:32:22.444Z,37.36
2023-05-12T17:34:50.991Z,37.53
2023-05-12T17:37:18.411Z,38.17
2023-05-12T17:39:46.415Z,38.38
2023-05-12T17:42:13.874Z,38.69
2023-05-12T17:44:41.187Z,39.04
2023-05-12T17:47:08.992Z,39.64
2023-05-12T17:49:36.624Z,40.38
2023-05-12T17:52:03.989Z,40.53
2023-05-12T17:54:31.219Z,41.49
2023-05-12T17:56:58.397Z,41.93
2023-05-12T17:59:25.637Z,41.54
2023-05-12T18:01:52.862Z,41.72
2023-05-12T18:04:20.413Z,42.70
2023-05-12T18:06:50.689Z,43.44
2023-05-12T18:09:18.746Z,44.83
2023-05-12T18:11:49.138Z,45.55
2023-05-12T18:14:17.183Z,46.65
2023-05-12T18:16:44.657Z,47.13
2023-05-12T18:19:11.955Z,47.43
2023-05-12T18:21:38.934Z,48.34
2023-05-12T18:24:06.443Z,49.10
2023-05-12T18:26:33.706Z,49.94
2023-05-12T18:29:00.907Z,50.42
2023-05-12T18:31:28.566Z,50.67
2023-05-12T18:33:56.486Z,51.83
2023-05-12T18:36:23.832Z,52.33
2023-05-12T18:38:51.167Z,52.76
2023-05-12T18:41:19.044Z,53.89
2023-05-12T18:43:46.313Z,53.76
2023-05-12T18:46:13.680Z,55.03
2023-05-12T18:48:41.032Z,56.43
2023-05-12T18:51:08.354Z,57.68
2023-05-12T18:53:35.680Z,58.10
2023-05-12T18:56:02.735Z,58.75
2023-05-12T18:58:30.061Z,59.54
2023-05-12T19:00:57.450Z,60.11
2023-05-12T19:03:24.525Z,60.30
2023-05-12T19:05:51.585Z,62.01
2023-05-12T19:08:20.216Z,61.09
2023-05-12T19:10:48.107Z,61.50
2023-05-12T19:13:15.539Z,61.69
2023-05-12T19:15:42.922Z,61.00
2023-05-12T19:18:10.080Z,62.59
2023-05-12T19:20:37.886Z,62.62
2023-05-12T19:23:04.998Z,63.13
2023-05-12T19:25:32.052Z,62.42
2023-05-12T19:27:59.171Z,62.42
2023-05-12T19:30:27.631Z,62.70
2023-05-12T19:32:54.854Z,62.48
2023-05-12T19:35:22.979Z,62.53
2023-05-12T19:37:50.383Z,63.21
2023-05-12T19:40:17.668Z,62.90
2023-05-12T19:42:44.792Z,63.24
2023-05-12T19:45:15.796Z,63.46
2023-05-12T19:47:43.046Z,63.79
2023-05-12T19:50:10.755Z,64.04
2023-05-12T19:52:39.236Z,64.42
2023-05-12T19:55:09.779Z,65.03
2023-05-12T19:57:37.670Z,64.89
2023-05-12T20:00:05.758Z,65.54
2023-05-12T20:02:39.773Z,65.95
2023-05-12T20:05:07.711Z,66.17
2023-05-12T20:07:34.870Z,66.49
2023-05-12T20:10:02.112Z,67.46
2023-05-12T20:12:29.773Z,68.02
2023-05-12T20:14:57.253Z,68.56
2023-05-12T20:17:24.618Z,70.73
2023-05-12T20:19:51.895Z,70.42
2023-05-12T20:22:19.059Z,70.83
2023-05-12T20:24:46.417Z,70.93
2023-05-12T20:27:13.663Z,70.54
2023-05-12T20:29:41.183Z,69.34
2023-05-12T20:32:08.449Z,68.49
2023-05-12T20:34:35.474Z,68.45
2023-05-12T20:37:02.482Z,67.80
2023-05-12T20:39:29.638Z,67.58
2023-05-12T20:41:56.851Z,67.92
2023-05-12T20:44:23.993Z,68.36
2023-05-12T20:46:51.154Z,68.41
2023-05-12T20:49:18.240Z,68.03
2023-05-12T20:51:45.418Z,67.96
2023-05-12T20:54:12.513Z,67.20
2023-05-12T20:56:39.673Z,67.11
2023-05-12T20:59:06.996Z,66.29
2023-05-12T21:01:34.389Z,65.87
2023-05-12T21:04:01.668Z,65.79
2023-05-12T21:06:29.122Z,65.67
2023-05-12T21:08:56.124Z,65.12
2023-05-12T21:11:23.137Z,65.18
2023-05-12T21:13:50.251Z,65.46
2023-05-12T21:16:17.166Z,64.97
2023-05-12T21:18:44.476Z,65.35
2023-05-12T21:21:11.496Z,65.12
2023-05-12T21:23:38.642Z,65.63
2023-05-12T21:26:06.270Z,66.06
2023-05-12T21:28:33.304Z,66.79
2023-05-12T21:31:00.499Z,67.40
2023-05-12T21:33:28.063Z,68.04
2023-05-12T21:35:55.224Z,68.97
2023-05-12T21:38:22.415Z,69.77
2023-05-12T21:40:51.999Z,70.63
2023-05-12T21:43:19.038Z,71.54
2023-05-12T21:45:46.059Z,72.37
2023-05-12T21:48:13.194Z,72.93
2023-05-12T21:50:40.234Z,73.40
2023-05-12T21:53:07.291Z,73.71
2023-05-12T21:55:34.347Z,74.87
2023-05-12T21:58:01.598Z,75.17
2023-05-12T22:00:28.601Z,75.81
2023-05-12T22:02:55.973Z,75.74
2023-05-12T22:05:23.793Z,76.69
2023-05-12T22:07:50.818Z,76.82
2023-05-12T22:10:18.281Z,76.81
2023-05-12T22:12:46.636Z,77.26
2023-05-12T22:15:13.952Z,76.84
2023-05-12T22:17:41.098Z,77.35
2023-05-12T22:20:09.294Z,77.15
2023-05-12T22:22:36.390Z,77.40
2023-05-12T22:25:04.836Z,77.09
2023-05-12T22:27:31.951Z,77.16
2023-05-12T22:29:58.930Z,78.10
2023-05-12T22:32:28.863Z,78.37
2023-05-12T22:34:56.231Z,78.72
2023-05-12T22:37:24.271Z,77.93
2023-05-12T22:39:51.436Z,78.31
2023-05-12T22:42:18.582Z,78.87
2023-05-12T22:44:45.647Z,78.76
2023-05-12T22:47:12.895Z,78.88
2023-05-12T22:49:40.836Z,79.39
2023-05-12T22:52:07.858Z,79.49
2023-05-12T22:54:34.955Z,80.23
2023-05-12T22:57:02.102Z,80.89
2023-05-12T22:59:29.109Z,81.42
2023-05-12T23:01:56.048Z,81.52
2023-05-12T23:04:23.284Z,82.77
2023-05-12T23:06:50.527Z,81.81
2023-05-12T23:09:17.392Z,82.00
2023-05-12T23:11:44.362Z,82.19
2023-05-12T23:14:11.641Z,82.58
2023-05-12T23:16:38.743Z,83.21
2023-05-12T23:19:05.810Z,83.72
2023-05-12T23:21:33.092Z,83.68
2023-05-12T23:24:00.216Z,83.25
2023-05-12T23:26:27.060Z,83.35
2023-05-12T23:28:55.455Z,83.48
2023-05-12T23:31:22.473Z,83.99
2023-05-12T23:33:49.883Z,84.36
2023-05-12T23:36:16.831Z,84.59
2023-05-12T23:38:44.028Z,85.34
2023-05-12T23:41:11.278Z,84.45
2023-05-12T23:43:39.155Z,84.23
2023-05-12T23:46:06.111Z,84.10
2023-05-12T23:48:33.257Z,84.81
2023-05-12T23:51:00.384Z,84.93
2023-05-12T23:53:27.346Z,84.99
2023-05-12T23:55:54.537Z,84.91
2023-05-12T23:58:22.620Z,85.41
